sensor_id;sensor_type;location;lat;lon;timestamp;P1;durP1;ratioP1;P2;durP2;ratioP2
52614;SDS011;38508;53.158;6.614;2023-02-21T00:02:18;51.45;;;46.92;;
52614;SDS011;38508;53.158;6.614;2023-02-21T00:05:03;52.33;;;47.60;;
52614;SDS011;38508;53.158;6.614;2023-02-21T00:07:47;52.70;;;47.75;;
52614;SDS011;38508;53.158;6.614;2023-02-21T00:10:32;50.35;;;45.38;;
52614;SDS011;38508;53.158;6.614;2023-02-21T00:13:16;52.00;;;46.97;;
52614;SDS011;38508;53.158;6.614;2023-02-21T00:16:00;51.05;;;46.33;;
52614;SDS011;38508;53.158;6.614;2023-02-21T00:18:45;52.65;;;47.78;;
52614;SDS011;38508;53.158;6.614;2023-02-21T00:21:29;51.35;;;46.85;;
52614;SDS011;38508;53.158;6.614;2023-02-21T00:24:15;50.63;;;46.28;;
52614;SDS011;38508;53.158;6.614;2023-02-21T00:27:01;51.15;;;46.22;;
52614;SDS011;38508;53.158;6.614;2023-02-21T00:29:46;50.92;;;45.83;;
52614;SDS011;38508;53.158;6.614;2023-02-21T00:32:32;48.27;;;44.17;;
52614;SDS011;38508;53.158;6.614;2023-02-21T00:35:16;49.95;;;45.17;;
52614;SDS011;38508;53.158;6.614;2023-02-21T00:38:01;51.40;;;47.17;;
52614;SDS011;38508;53.158;6.614;2023-02-21T00:40:45;52.90;;;47.85;;
52614;SDS011;38508;53.158;6.614;2023-02-21T00:43:30;52.58;;;47.53;;
52614;SDS011;38508;53.158;6.614;2023-02-21T00:46:16;54.58;;;49.30;;
52614;SDS011;38508;53.158;6.614;2023-02-21T00:49:01;54.47;;;49.55;;
52614;SDS011;38508;53.158;6.614;2023-02-21T00:51:46;52.67;;;47.85;;
52614;SDS011;38508;53.158;6.614;2023-02-21T00:54:30;57.40;;;52.38;;
52614;SDS011;38508;53.158;6.614;2023-02-21T00:57:14;56.15;;;50.60;;
52614;SDS011;38508;53.158;6.614;2023-02-21T00:59:59;58.25;;;52.72;;
52614;SDS011;38508;53.158;6.614;2023-02-21T01:02:43;59.92;;;54.53;;
52614;SDS011;38508;53.158;6.614;2023-02-21T01:05:27;58.90;;;53.30;;
52614;SDS011;38508;53.158;6.614;2023-02-21T01:08:12;61.22;;;55.58;;
52614;SDS011;38508;53.158;6.614;2023-02-21T01:10:56;64.95;;;58.90;;
52614;SDS011;38508;53.158;6.614;2023-02-21T01:13:41;63.55;;;57.35;;
52614;SDS011;38508;53.158;6.614;2023-02-21T01:16:28;62.88;;;57.92;;
52614;SDS011;38508;53.158;6.614;2023-02-21T01:19:14;61.28;;;55.72;;
52614;SDS011;38508;53.158;6.614;2023-02-21T01:21:59;58.30;;;53.00;;
52614;SDS011;38508;53.158;6.614;2023-02-21T01:24:43;60.53;;;55.03;;
52614;SDS011;38508;53.158;6.614;2023-02-21T01:27:28;57.15;;;52.50;;
52614;SDS011;38508;53.158;6.614;2023-02-21T01:30:12;59.50;;;54.35;;
52614;SDS011;38508;53.158;6.614;2023-02-21T01:32:56;61.10;;;55.72;;
52614;SDS011;38508;53.158;6.614;2023-02-21T01:35:41;61.47;;;55.78;;
52614;SDS011;38508;53.158;6.614;2023-02-21T01:38:25;61.65;;;55.33;;
52614;SDS011;38508;53.158;6.614;2023-02-21T01:41:09;59.13;;;53.17;;
52614;SDS011;38508;53.158;6.614;2023-02-21T01:46:42;57.05;;;51.83;;
52614;SDS011;38508;53.158;6.614;2023-02-21T01:49:27;58.80;;;53.67;;
52614;SDS011;38508;53.158;6.614;2023-02-21T01:52:12;58.28;;;53.20;;
52614;SDS011;38508;53.158;6.614;2023-02-21T01:54:56;58.10;;;52.75;;
52614;SDS011;38508;53.158;6.614;2023-02-21T01:57:42;58.22;;;53.10;;
52614;SDS011;38508;53.158;6.614;2023-02-21T02:00:28;55.33;;;50.35;;
52614;SDS011;38508;53.158;6.614;2023-02-21T02:03:14;53.38;;;48.78;;
52614;SDS011;38508;53.158;6.614;2023-02-21T02:06:01;55.00;;;50.28;;
52614;SDS011;38508;53.158;6.614;2023-02-21T02:08:47;54.30;;;49.35;;
52614;SDS011;38508;53.158;6.614;2023-02-21T02:26:03;54.70;;;49.25;;
52614;SDS011;38508;53.158;6.614;2023-02-21T02:39:50;55.67;;;50.83;;
52614;SDS011;38508;53.158;6.614;2023-02-21T02:42:23;55.45;;;50.55;;
52614;SDS011;38508;53.158;6.614;2023-02-21T02:48:16;56.20;;;50.88;;
52614;SDS011;38508;53.158;6.614;2023-02-21T02:50:48;58.25;;;52.88;;
52614;SDS011;38508;53.158;6.614;2023-02-21T02:53:17;58.53;;;53.33;;
52614;SDS011;38508;53.158;6.614;2023-02-21T02:55:52;61.10;;;55.50;;
52614;SDS011;38508;53.158;6.614;2023-02-21T02:58:21;58.63;;;53.25;;
52614;SDS011;38508;53.158;6.614;2023-02-21T03:01:36;58.75;;;53.72;;
52614;SDS011;38508;53.158;6.614;2023-02-21T03:10:02;59.72;;;53.30;;
52614;SDS011;38508;53.158;6.614;2023-02-21T03:15:10;58.88;;;53.65;;
52614;SDS011;38508;53.158;6.614;2023-02-21T03:18:02;60.33;;;54.97;;
52614;SDS011;38508;53.158;6.614;2023-02-21T03:20:34;60.53;;;55.33;;
52614;SDS011;38508;53.158;6.614;2023-02-21T03:23:02;60.65;;;55.45;;
52614;SDS011;38508;53.158;6.614;2023-02-21T03:25:30;59.50;;;54.15;;
52614;SDS011;38508;53.158;6.614;2023-02-21T03:27:58;61.28;;;55.90;;
52614;SDS011;38508;53.158;6.614;2023-02-21T03:30:26;62.10;;;56.13;;
52614;SDS011;38508;53.158;6.614;2023-02-21T03:32:53;63.40;;;56.80;;
52614;SDS011;38508;53.158;6.614;2023-02-21T03:35:20;65.53;;;58.80;;
52614;SDS011;38508;53.158;6.614;2023-02-21T03:37:47;62.45;;;56.60;;
52614;SDS011;38508;53.158;6.614;2023-02-21T03:42:49;62.65;;;56.72;;
52614;SDS011;38508;53.158;6.614;2023-02-21T03:45:15;64.10;;;57.80;;
52614;SDS011;38508;53.158;6.614;2023-02-21T03:47:41;63.17;;;57.40;;
52614;SDS011;38508;53.158;6.614;2023-02-21T03:50:07;63.42;;;57.58;;
52614;SDS011;38508;53.158;6.614;2023-02-21T03:52:33;63.50;;;57.85;;
52614;SDS011;38508;53.158;6.614;2023-02-21T03:54:59;63.88;;;58.03;;
52614;SDS011;38508;53.158;6.614;2023-02-21T03:57:24;60.97;;;55.53;;
52614;SDS011;38508;53.158;6.614;2023-02-21T03:59:50;61.42;;;55.90;;
52614;SDS011;38508;53.158;6.614;2023-02-21T04:02:16;64.72;;;58.15;;
52614;SDS011;38508;53.158;6.614;2023-02-21T04:04:43;61.00;;;54.67;;
52614;SDS011;38508;53.158;6.614;2023-02-21T04:07:10;64.00;;;57.75;;
52614;SDS011;38508;53.158;6.614;2023-02-21T04:09:36;62.60;;;56.60;;
52614;SDS011;38508;53.158;6.614;2023-02-21T04:12:03;62.17;;;56.17;;
52614;SDS011;38508;53.158;6.614;2023-02-21T04:14:29;61.10;;;55.58;;
52614;SDS011;38508;53.158;6.614;2023-02-21T04:16:55;61.33;;;55.22;;
52614;SDS011;38508;53.158;6.614;2023-02-21T04:19:20;60.72;;;55.35;;
52614;SDS011;38508;53.158;6.614;2023-02-21T04:21:46;61.75;;;55.67;;
52614;SDS011;38508;53.158;6.614;2023-02-21T04:24:12;62.65;;;56.97;;
52614;SDS011;38508;53.158;6.614;2023-02-21T04:26:38;64.65;;;58.97;;
52614;SDS011;38508;53.158;6.614;2023-02-21T04:29:04;65.10;;;58.65;;
52614;SDS011;38508;53.158;6.614;2023-02-21T04:31:29;64.00;;;57.97;;
52614;SDS011;38508;53.158;6.614;2023-02-21T04:33:56;64.55;;;58.50;;
52614;SDS011;38508;53.158;6.614;2023-02-21T04:36:22;63.15;;;57.00;;
52614;SDS011;38508;53.158;6.614;2023-02-21T04:38:48;64.90;;;58.47;;
52614;SDS011;38508;53.158;6.614;2023-02-21T04:41:14;65.95;;;59.65;;
52614;SDS011;38508;53.158;6.614;2023-02-21T04:43:41;68.50;;;62.22;;
52614;SDS011;38508;53.158;6.614;2023-02-21T04:46:07;66.25;;;59.90;;
52614;SDS011;38508;53.158;6.614;2023-02-21T04:48:33;66.47;;;60.22;;
52614;SDS011;38508;53.158;6.614;2023-02-21T04:50:59;68.85;;;62.65;;
52614;SDS011;38508;53.158;6.614;2023-02-21T04:53:25;72.10;;;65.55;;
52614;SDS011;38508;53.158;6.614;2023-02-21T04:55:50;73.55;;;67.00;;
52614;SDS011;38508;53.158;6.614;2023-02-21T04:58:16;76.88;;;69.55;;
52614;SDS011;38508;53.158;6.614;2023-02-21T05:00:42;76.13;;;68.93;;
52614;SDS011;38508;53.158;6.614;2023-02-21T05:03:08;75.70;;;68.35;;
52614;SDS011;38508;53.158;6.614;2023-02-21T05:05:33;74.38;;;67.72;;
52614;SDS011;38508;53.158;6.614;2023-02-21T05:07:59;74.82;;;67.63;;
52614;SDS011;38508;53.158;6.614;2023-02-21T05:10:25;73.60;;;66.70;;
52614;SDS011;38508;53.158;6.614;2023-02-21T05:12:50;76.20;;;69.20;;
52614;SDS011;38508;53.158;6.614;2023-02-21T05:15:16;75.60;;;68.53;;
52614;SDS011;38508;53.158;6.614;2023-02-21T05:17:42;78.45;;;71.32;;
52614;SDS011;38508;53.158;6.614;2023-02-21T05:20:09;78.97;;;71.53;;
52614;SDS011;38508;53.158;6.614;2023-02-21T05:22:39;83.97;;;76.18;;
52614;SDS011;38508;53.158;6.614;2023-02-21T05:25:06;80.15;;;72.03;;
52614;SDS011;38508;53.158;6.614;2023-02-21T05:27:53;83.63;;;76.50;;
52614;SDS011;38508;53.158;6.614;2023-02-21T05:30:19;83.32;;;75.88;;
52614;SDS011;38508;53.158;6.614;2023-02-21T05:32:47;84.18;;;76.30;;
52614;SDS011;38508;53.158;6.614;2023-02-21T05:35:14;82.30;;;74.88;;
52614;SDS011;38508;53.158;6.614;2023-02-21T05:37:40;80.25;;;72.78;;
52614;SDS011;38508;53.158;6.614;2023-02-21T05:40:06;83.32;;;75.72;;
52614;SDS011;38508;53.158;6.614;2023-02-21T05:42:34;84.63;;;76.65;;
52614;SDS011;38508;53.158;6.614;2023-02-21T05:45:00;80.20;;;73.05;;
52614;SDS011;38508;53.158;6.614;2023-02-21T05:47:26;82.68;;;75.60;;
52614;SDS011;38508;53.158;6.614;2023-02-21T05:49:52;80.85;;;73.60;;
52614;SDS011;38508;53.158;6.614;2023-02-21T05:52:17;81.75;;;74.15;;
52614;SDS011;38508;53.158;6.614;2023-02-21T05:54:43;82.20;;;74.50;;
52614;SDS011;38508;53.158;6.614;2023-02-21T05:57:09;83.53;;;75.47;;
52614;SDS011;38508;53.158;6.614;2023-02-21T05:59:36;84.30;;;75.78;;
52614;SDS011;38508;53.158;6.614;2023-02-21T06:02:02;81.97;;;74.57;;
52614;SDS011;38508;53.158;6.614;2023-02-21T06:04:28;85.90;;;77.95;;
52614;SDS011;38508;53.158;6.614;2023-02-21T06:06:53;78.35;;;71.22;;
52614;SDS011;38508;53.158;6.614;2023-02-21T06:09:19;83.00;;;75.40;;
52614;SDS011;38508;53.158;6.614;2023-02-21T06:11:45;84.07;;;76.28;;
52614;SDS011;38508;53.158;6.614;2023-02-21T06:14:15;80.05;;;72.38;;
52614;SDS011;38508;53.158;6.614;2023-02-21T06:16:43;87.90;;;79.82;;
52614;SDS011;38508;53.158;6.614;2023-02-21T06:19:09;84.03;;;76.65;;
52614;SDS011;38508;53.158;6.614;2023-02-21T06:21:37;82.13;;;74.50;;
52614;SDS011;38508;53.158;6.614;2023-02-21T06:24:04;81.70;;;74.32;;
52614;SDS011;38508;53.158;6.614;2023-02-21T06:26:30;79.35;;;71.95;;
52614;SDS011;38508;53.158;6.614;2023-02-21T06:28:56;83.15;;;75.30;;
52614;SDS011;38508;53.158;6.614;2023-02-21T06:31:22;82.70;;;75.22;;
52614;SDS011;38508;53.158;6.614;2023-02-21T06:33:48;83.00;;;75.22;;
52614;SDS011;38508;53.158;6.614;2023-02-21T06:36:15;81.85;;;74.07;;
52614;SDS011;38508;53.158;6.614;2023-02-21T06:38:44;83.57;;;76.00;;
52614;SDS011;38508;53.158;6.614;2023-02-21T06:41:15;83.13;;;74.75;;
52614;SDS011;38508;53.158;6.614;2023-02-21T06:43:43;83.78;;;75.30;;
52614;SDS011;38508;53.158;6.614;2023-02-21T06:46:09;81.68;;;73.50;;
52614;SDS011;38508;53.158;6.614;2023-02-21T06:48:39;86.30;;;78.03;;
52614;SDS011;38508;53.158;6.614;2023-02-21T06:51:05;85.50;;;77.40;;
52614;SDS011;38508;53.158;6.614;2023-02-21T06:53:35;84.68;;;76.82;;
52614;SDS011;38508;53.158;6.614;2023-02-21T06:56:07;85.20;;;77.43;;
52614;SDS011;38508;53.158;6.614;2023-02-21T06:58:33;83.43;;;75.20;;
52614;SDS011;38508;53.158;6.614;2023-02-21T07:00:59;84.60;;;76.38;;
52614;SDS011;38508;53.158;6.614;2023-02-21T07:03:25;88.90;;;79.97;;
52614;SDS011;38508;53.158;6.614;2023-02-21T07:05:51;90.70;;;82.07;;
52614;SDS011;38508;53.158;6.614;2023-02-21T07:08:17;84.50;;;76.30;;
52614;SDS011;38508;53.158;6.614;2023-02-21T07:10:43;86.60;;;78.43;;
52614;SDS011;38508;53.158;6.614;2023-02-21T07:13:09;88.03;;;78.75;;
52614;SDS011;38508;53.158;6.614;2023-02-21T07:15:34;87.45;;;79.20;;
52614;SDS011;38508;53.158;6.614;2023-02-21T07:18:00;86.38;;;78.05;;
52614;SDS011;38508;53.158;6.614;2023-02-21T07:20:26;83.68;;;75.68;;
52614;SDS011;38508;53.158;6.614;2023-02-21T07:22:51;85.72;;;77.18;;
52614;SDS011;38508;53.158;6.614;2023-02-21T07:25:18;85.88;;;77.65;;
52614;SDS011;38508;53.158;6.614;2023-02-21T07:27:46;86.18;;;78.20;;
52614;SDS011;38508;53.158;6.614;2023-02-21T07:30:13;87.50;;;79.13;;
52614;SDS011;38508;53.158;6.614;2023-02-21T07:32:39;89.55;;;80.97;;
52614;SDS011;38508;53.158;6.614;2023-02-21T07:35:05;85.65;;;77.45;;
52614;SDS011;38508;53.158;6.614;2023-02-21T07:37:31;89.47;;;80.30;;
52614;SDS011;38508;53.158;6.614;2023-02-21T07:39:57;85.85;;;77.10;;
52614;SDS011;38508;53.158;6.614;2023-02-21T07:42:23;84.95;;;76.68;;
52614;SDS011;38508;53.158;6.614;2023-02-21T07:44:53;86.82;;;78.28;;
52614;SDS011;38508;53.158;6.614;2023-02-21T07:47:22;89.88;;;80.55;;
52614;SDS011;38508;53.158;6.614;2023-02-21T07:49:49;83.05;;;75.03;;
52614;SDS011;38508;53.158;6.614;2023-02-21T07:52:15;86.97;;;78.22;;
52614;SDS011;38508;53.158;6.614;2023-02-21T07:54:41;83.13;;;74.78;;
52614;SDS011;38508;53.158;6.614;2023-02-21T07:57:07;81.90;;;73.70;;
52614;SDS011;38508;53.158;6.614;2023-02-21T07:59:33;81.90;;;73.75;;
52614;SDS011;38508;53.158;6.614;2023-02-21T08:01:59;83.15;;;74.38;;
52614;SDS011;38508;53.158;6.614;2023-02-21T08:04:25;84.00;;;75.03;;
52614;SDS011;38508;53.158;6.614;2023-02-21T08:06:51;80.15;;;71.43;;
52614;SDS011;38508;53.158;6.614;2023-02-21T08:09:22;81.18;;;73.20;;
52614;SDS011;38508;53.158;6.614;2023-02-21T08:11:47;78.95;;;71.10;;
52614;SDS011;38508;53.158;6.614;2023-02-21T08:14:13;81.05;;;72.70;;
52614;SDS011;38508;53.158;6.614;2023-02-21T08:16:39;77.20;;;69.38;;
52614;SDS011;38508;53.158;6.614;2023-02-21T08:19:04;77.82;;;69.25;;
52614;SDS011;38508;53.158;6.614;2023-02-21T08:21:30;73.93;;;67.00;;
52614;SDS011;38508;53.158;6.614;2023-02-21T08:23:55;74.13;;;66.68;;
52614;SDS011;38508;53.158;6.614;2023-02-21T08:26:21;75.80;;;68.00;;
52614;SDS011;38508;53.158;6.614;2023-02-21T08:28:47;72.53;;;64.90;;
52614;SDS011;38508;53.158;6.614;2023-02-21T08:31:13;77.07;;;69.07;;
52614;SDS011;38508;53.158;6.614;2023-02-21T08:33:38;76.82;;;68.88;;
52614;SDS011;38508;53.158;6.614;2023-02-21T08:36:05;77.72;;;70.60;;
52614;SDS011;38508;53.158;6.614;2023-02-21T08:38:31;77.05;;;69.35;;
52614;SDS011;38508;53.158;6.614;2023-02-21T08:40:56;79.72;;;71.75;;
52614;SDS011;38508;53.158;6.614;2023-02-21T08:43:23;80.78;;;72.70;;
52614;SDS011;38508;53.158;6.614;2023-02-21T08:45:49;79.28;;;71.25;;
52614;SDS011;38508;53.158;6.614;2023-02-21T08:48:15;79.35;;;71.47;;
52614;SDS011;38508;53.158;6.614;2023-02-21T08:50:41;76.30;;;68.70;;
52614;SDS011;38508;53.158;6.614;2023-02-21T08:53:07;71.07;;;64.60;;
52614;SDS011;38508;53.158;6.614;2023-02-21T08:55:34;73.80;;;66.65;;
52614;SDS011;38508;53.158;6.614;2023-02-21T08:57:59;76.18;;;68.22;;
52614;SDS011;38508;53.158;6.614;2023-02-21T09:00:25;73.75;;;66.82;;
52614;SDS011;38508;53.158;6.614;2023-02-21T09:02:54;75.57;;;67.53;;
52614;SDS011;38508;53.158;6.614;2023-02-21T09:05:23;74.82;;;67.03;;
52614;SDS011;38508;53.158;6.614;2023-02-21T09:07:52;75.65;;;68.35;;
52614;SDS011;38508;53.158;6.614;2023-02-21T09:10:26;76.90;;;68.78;;
52614;SDS011;38508;53.158;6.614;2023-02-21T09:12:53;73.85;;;66.75;;
52614;SDS011;38508;53.158;6.614;2023-02-21T09:15:19;76.82;;;69.40;;
52614;SDS011;38508;53.158;6.614;2023-02-21T09:17:45;77.55;;;70.07;;
52614;SDS011;38508;53.158;6.614;2023-02-21T09:20:13;76.47;;;69.00;;
52614;SDS011;38508;53.158;6.614;2023-02-21T09:22:42;74.82;;;67.40;;
52614;SDS011;38508;53.158;6.614;2023-02-21T09:25:12;73.38;;;65.93;;
52614;SDS011;38508;53.158;6.614;2023-02-21T09:27:45;74.80;;;67.38;;
52614;SDS011;38508;53.158;6.614;2023-02-21T09:30:12;77.18;;;69.72;;
52614;SDS011;38508;53.158;6.614;2023-02-21T09:32:48;74.65;;;67.22;;
52614;SDS011;38508;53.158;6.614;2023-02-21T09:35:15;74.85;;;66.78;;
52614;SDS011;38508;53.158;6.614;2023-02-21T09:37:41;76.20;;;68.30;;
52614;SDS011;38508;53.158;6.614;2023-02-21T09:40:11;70.47;;;63.92;;
52614;SDS011;38508;53.158;6.614;2023-02-21T09:42:54;71.03;;;63.42;;
52614;SDS011;38508;53.158;6.614;2023-02-21T09:45:22;74.43;;;67.30;;
52614;SDS011;38508;53.158;6.614;2023-02-21T09:47:52;73.30;;;65.28;;
52614;SDS011;38508;53.158;6.614;2023-02-21T09:50:22;73.90;;;66.80;;
52614;SDS011;38508;53.158;6.614;2023-02-21T09:52:52;72.45;;;64.90;;
52614;SDS011;38508;53.158;6.614;2023-02-21T09:55:35;73.10;;;65.57;;
52614;SDS011;38508;53.158;6.614;2023-02-21T09:58:02;73.60;;;66.82;;
52614;SDS011;38508;53.158;6.614;2023-02-21T10:00:34;72.70;;;65.22;;
52614;SDS011;38508;53.158;6.614;2023-02-21T10:17:20;69.25;;;62.35;;
52614;SDS011;38508;53.158;6.614;2023-02-21T10:20:14;69.82;;;62.38;;
52614;SDS011;38508;53.158;6.614;2023-02-21T10:22:46;62.75;;;56.60;;
52614;SDS011;38508;53.158;6.614;2023-02-21T10:25:22;65.00;;;58.72;;
52614;SDS011;38508;53.158;6.614;2023-02-21T10:27:54;67.95;;;60.95;;
52614;SDS011;38508;53.158;6.614;2023-02-21T10:32:53;67.80;;;61.47;;
52614;SDS011;38508;53.158;6.614;2023-02-21T10:35:19;66.40;;;60.22;;
52614;SDS011;38508;53.158;6.614;2023-02-21T10:37:46;67.65;;;61.13;;
52614;SDS011;38508;53.158;6.614;2023-02-21T10:43:08;62.85;;;57.20;;
52614;SDS011;38508;53.158;6.614;2023-02-21T10:45:43;65.03;;;55.60;;
52614;SDS011;38508;53.158;6.614;2023-02-21T10:48:15;61.03;;;54.80;;
52614;SDS011;38508;53.158;6.614;2023-02-21T10:50:50;63.10;;;56.63;;
52614;SDS011;38508;53.158;6.614;2023-02-21T10:56:11;64.45;;;58.38;;
52614;SDS011;38508;53.158;6.614;2023-02-21T11:01:17;63.47;;;57.08;;
52614;SDS011;38508;53.158;6.614;2023-02-21T11:03:50;64.32;;;58.08;;
52614;SDS011;38508;53.158;6.614;2023-02-21T11:06:26;64.57;;;58.67;;
52614;SDS011;38508;53.158;6.614;2023-02-21T11:17:23;62.78;;;56.95;;
52614;SDS011;38508;53.158;6.614;2023-02-21T11:22:39;59.60;;;54.30;;
52614;SDS011;38508;53.158;6.614;2023-02-21T11:25:23;62.70;;;56.92;;
52614;SDS011;38508;53.158;6.614;2023-02-21T11:30:31;62.92;;;56.95;;
52614;SDS011;38508;53.158;6.614;2023-02-21T11:32:59;60.88;;;55.20;;
52614;SDS011;38508;53.158;6.614;2023-02-21T11:35:43;59.80;;;54.28;;
52614;SDS011;38508;53.158;6.614;2023-02-21T11:40:56;61.28;;;55.88;;
52614;SDS011;38508;53.158;6.614;2023-02-21T11:43:29;61.88;;;55.90;;
52614;SDS011;38508;53.158;6.614;2023-02-21T11:51:38;62.88;;;57.33;;
52614;SDS011;38508;53.158;6.614;2023-02-21T11:54:13;58.47;;;53.25;;
52614;SDS011;38508;53.158;6.614;2023-02-21T11:57:00;64.10;;;57.70;;
52614;SDS011;38508;53.158;6.614;2023-02-21T12:10:39;58.55;;;53.42;;
52614;SDS011;38508;53.158;6.614;2023-02-21T12:18:56;57.22;;;52.00;;
52614;SDS011;38508;53.158;6.614;2023-02-21T12:43:19;63.35;;;57.78;;
52614;SDS011;38508;53.158;6.614;2023-02-21T12:46:05;57.70;;;52.85;;
52614;SDS011;38508;53.158;6.614;2023-02-21T12:49:01;57.50;;;52.25;;
52614;SDS011;38508;53.158;6.614;2023-02-21T12:51:43;58.47;;;53.05;;
52614;SDS011;38508;53.158;6.614;2023-02-21T12:54:35;57.88;;;52.60;;
52614;SDS011;38508;53.158;6.614;2023-02-21T12:57:17;59.42;;;53.85;;
52614;SDS011;38508;53.158;6.614;2023-02-21T12:59:51;62.78;;;57.40;;
52614;SDS011;38508;53.158;6.614;2023-02-21T13:05:38;55.20;;;50.30;;
52614;SDS011;38508;53.158;6.614;2023-02-21T13:10:57;56.33;;;51.22;;
52614;SDS011;38508;53.158;6.614;2023-02-21T13:13:30;57.35;;;52.45;;
52614;SDS011;38508;53.158;6.614;2023-02-21T13:15:57;61.08;;;55.67;;
52614;SDS011;38508;53.158;6.614;2023-02-21T13:18:36;56.17;;;50.88;;
52614;SDS011;38508;53.158;6.614;2023-02-21T13:23:56;56.65;;;51.47;;
52614;SDS011;38508;53.158;6.614;2023-02-21T13:29:24;62.45;;;56.97;;
52614;SDS011;38508;53.158;6.614;2023-02-21T13:32:00;64.50;;;59.00;;
52614;SDS011;38508;53.158;6.614;2023-02-21T13:34:30;66.70;;;60.85;;
52614;SDS011;38508;53.158;6.614;2023-02-21T13:37:05;65.32;;;59.85;;
52614;SDS011;38508;53.158;6.614;2023-02-21T13:39:37;65.55;;;60.05;;
52614;SDS011;38508;53.158;6.614;2023-02-21T13:42:20;64.18;;;58.40;;
52614;SDS011;38508;53.158;6.614;2023-02-21T13:44:49;68.93;;;63.70;;
52614;SDS011;38508;53.158;6.614;2023-02-21T13:48:08;70.88;;;65.13;;
52614;SDS011;38508;53.158;6.614;2023-02-21T14:01:21;89.80;;;82.53;;
52614;SDS011;38508;53.158;6.614;2023-02-21T14:03:52;91.38;;;83.65;;
52614;SDS011;38508;53.158;6.614;2023-02-21T14:06:31;93.82;;;86.15;;
52614;SDS011;38508;53.158;6.614;2023-02-21T14:09:03;97.07;;;89.38;;
52614;SDS011;38508;53.158;6.614;2023-02-21T14:11:38;97.13;;;89.68;;
52614;SDS011;38508;53.158;6.614;2023-02-21T14:14:18;103.40;;;95.15;;
52614;SDS011;38508;53.158;6.614;2023-02-21T14:17:10;103.80;;;96.28;;
52614;SDS011;38508;53.158;6.614;2023-02-21T14:24:48;108.25;;;99.55;;
52614;SDS011;38508;53.158;6.614;2023-02-21T14:32:45;109.07;;;100.38;;
52614;SDS011;38508;53.158;6.614;2023-02-21T14:43:04;117.30;;;108.43;;
52614;SDS011;38508;53.158;6.614;2023-02-21T14:48:29;120.30;;;111.05;;
52614;SDS011;38508;53.158;6.614;2023-02-21T14:59:27;117.40;;;108.38;;
52614;SDS011;38508;53.158;6.614;2023-02-21T15:02:21;114.00;;;105.68;;
52614;SDS011;38508;53.158;6.614;2023-02-21T15:05:09;112.25;;;103.80;;
52614;SDS011;38508;53.158;6.614;2023-02-21T15:13:19;112.88;;;104.40;;
52614;SDS011;38508;53.158;6.614;2023-02-21T15:15:54;114.75;;;106.07;;
52614;SDS011;38508;53.158;6.614;2023-02-21T15:18:29;117.22;;;108.82;;
52614;SDS011;38508;53.158;6.614;2023-02-21T15:23:45;112.47;;;103.93;;
52614;SDS011;38508;53.158;6.614;2023-02-21T15:26:26;117.13;;;107.75;;
52614;SDS011;38508;53.158;6.614;2023-02-21T15:29:03;114.63;;;105.72;;
52614;SDS011;38508;53.158;6.614;2023-02-21T15:34:21;116.93;;;107.70;;
52614;SDS011;38508;53.158;6.614;2023-02-21T15:36:56;115.05;;;106.13;;
52614;SDS011;38508;53.158;6.614;2023-02-21T15:41:55;120.25;;;110.85;;
52614;SDS011;38508;53.158;6.614;2023-02-21T15:47:27;120.38;;;110.20;;
52614;SDS011;38508;53.158;6.614;2023-02-21T15:49:59;122.82;;;112.13;;
52614;SDS011;38508;53.158;6.614;2023-02-21T15:52:42;120.40;;;110.35;;
52614;SDS011;38508;53.158;6.614;2023-02-21T16:00:39;122.72;;;112.18;;
52614;SDS011;38508;53.158;6.614;2023-02-21T16:05:49;122.15;;;110.93;;
52614;SDS011;38508;53.158;6.614;2023-02-21T16:08:15;117.20;;;106.78;;
52614;SDS011;38508;53.158;6.614;2023-02-21T16:10:41;121.18;;;110.70;;
52614;SDS011;38508;53.158;6.614;2023-02-21T16:13:14;117.65;;;107.13;;
52614;SDS011;38508;53.158;6.614;2023-02-21T16:15:41;121.72;;;110.72;;
52614;SDS011;38508;53.158;6.614;2023-02-21T16:18:08;119.68;;;108.38;;
52614;SDS011;38508;53.158;6.614;2023-02-21T16:20:40;115.90;;;104.53;;
52614;SDS011;38508;53.158;6.614;2023-02-21T16:23:24;117.25;;;106.35;;
52614;SDS011;38508;53.158;6.614;2023-02-21T16:28:34;122.43;;;111.68;;
52614;SDS011;38508;53.158;6.614;2023-02-21T16:31:02;124.35;;;112.82;;
52614;SDS011;38508;53.158;6.614;2023-02-21T16:33:51;120.30;;;108.60;;
52614;SDS011;38508;53.158;6.614;2023-02-21T16:36:18;118.50;;;107.72;;
52614;SDS011;38508;53.158;6.614;2023-02-21T16:38:47;121.25;;;110.50;;
52614;SDS011;38508;53.158;6.614;2023-02-21T16:41:13;121.28;;;109.10;;
52614;SDS011;38508;53.158;6.614;2023-02-21T16:43:40;124.78;;;113.32;;
52614;SDS011;38508;53.158;6.614;2023-02-21T16:46:05;123.57;;;110.88;;
52614;SDS011;38508;53.158;6.614;2023-02-21T16:48:31;118.35;;;107.18;;
52614;SDS011;38508;53.158;6.614;2023-02-21T16:50:58;121.43;;;109.55;;
52614;SDS011;38508;53.158;6.614;2023-02-21T16:53:27;119.35;;;107.88;;
52614;SDS011;38508;53.158;6.614;2023-02-21T16:55:53;121.13;;;109.25;;
52614;SDS011;38508;53.158;6.614;2023-02-21T17:00:50;125.95;;;113.40;;
52614;SDS011;38508;53.158;6.614;2023-02-21T17:03:23;123.93;;;112.20;;
52614;SDS011;38508;53.158;6.614;2023-02-21T17:05:50;121.82;;;110.90;;
52614;SDS011;38508;53.158;6.614;2023-02-21T17:08:17;118.28;;;107.20;;
52614;SDS011;38508;53.158;6.614;2023-02-21T17:10:44;122.50;;;111.65;;
52614;SDS011;38508;53.158;6.614;2023-02-21T17:13:09;119.03;;;107.68;;
52614;SDS011;38508;53.158;6.614;2023-02-21T17:15:35;118.20;;;107.72;;
52614;SDS011;38508;53.158;6.614;2023-02-21T17:18:01;125.25;;;112.93;;
52614;SDS011;38508;53.158;6.614;2023-02-21T17:20:27;122.03;;;110.55;;
52614;SDS011;38508;53.158;6.614;2023-02-21T17:22:53;119.93;;;108.85;;
52614;SDS011;38508;53.158;6.614;2023-02-21T17:25:22;110.65;;;101.28;;
52614;SDS011;38508;53.158;6.614;2023-02-21T17:27:49;113.82;;;103.90;;
52614;SDS011;38508;53.158;6.614;2023-02-21T17:30:16;112.13;;;101.93;;
52614;SDS011;38508;53.158;6.614;2023-02-21T17:32:44;111.15;;;101.65;;
52614;SDS011;38508;53.158;6.614;2023-02-21T17:35:11;115.80;;;104.60;;
52614;SDS011;38508;53.158;6.614;2023-02-21T17:37:39;110.78;;;100.47;;
52614;SDS011;38508;53.158;6.614;2023-02-21T17:40:07;117.35;;;105.68;;
52614;SDS011;38508;53.158;6.614;2023-02-21T17:42:34;114.10;;;102.88;;
52614;SDS011;38508;53.158;6.614;2023-02-21T17:44:59;116.85;;;105.53;;
52614;SDS011;38508;53.158;6.614;2023-02-21T17:47:27;115.75;;;106.05;;
52614;SDS011;38508;53.158;6.614;2023-02-21T17:49:53;120.00;;;107.20;;
52614;SDS011;38508;53.158;6.614;2023-02-21T17:52:19;121.38;;;109.00;;
52614;SDS011;38508;53.158;6.614;2023-02-21T17:54:45;122.88;;;110.80;;
52614;SDS011;38508;53.158;6.614;2023-02-21T17:57:11;117.40;;;107.70;;
52614;SDS011;38508;53.158;6.614;2023-02-21T17:59:38;125.20;;;112.70;;
52614;SDS011;38508;53.158;6.614;2023-02-21T18:02:04;120.53;;;110.00;;
52614;SDS011;38508;53.158;6.614;2023-02-21T18:04:32;120.55;;;109.78;;
52614;SDS011;38508;53.158;6.614;2023-02-21T18:06:58;117.30;;;107.72;;
52614;SDS011;38508;53.158;6.614;2023-02-21T18:09:24;118.47;;;108.20;;
52614;SDS011;38508;53.158;6.614;2023-02-21T18:11:51;114.43;;;105.20;;
52614;SDS011;38508;53.158;6.614;2023-02-21T18:14:19;116.28;;;106.65;;